Time;durP1;ratioP1;P1;durP2;ratioP2;P2;SDS_P1;SDS_P2;PMS_P1;PMS_P2;Temp;Humidity;BMP_temperature;BMP_pressure;BME280_temperature;BME280_humidity;BME280_pressure;Samples;Min_cycle;Max_cycle;Signal;HPM_P1;HPM_P2
2022/10/29 00:01:09;;;;;;;;;24.25;17.75;;;;;19.73;71.01;101676.44;5059597;28;45245;-41
2022/10/29 00:03:35;;;;;;;;;18.75;17.25;;;;;19.74;71.03;101658.38;5059645;28;45304;-42
2022/10/29 00:06:06;;;;;;;;;22.50;17.50;;;;;19.70;70.95;101655.19;5059618;28;45169;-42
2022/10/29 00:08:33;;;;;;;;;25.25;16.75;;;;;19.71;71.00;101659.56;5059426;28;47292;-41
2022/10/29 00:11:25;;;;;;;;;19.25;16.50;;;;;19.60;70.90;101641.09;5059398;28;45387;-41
2022/10/29 00:13:58;;;;;;;;;17.50;15.00;;;;;19.64;70.95;101656.78;5056427;28;45572;-42
2022/10/29 00:16:27;;;;;;;;;20.50;16.25;;;;;19.57;71.27;101627.97;5059513;28;45492;-42
2022/10/29 00:18:53;;;;;;;;;26.25;15.25;;;;;19.62;71.26;101623.72;5059236;28;45687;-42
2022/10/29 00:21:20;;;;;;;;;15.25;14.50;;;;;19.68;70.98;101635.66;5059015;28;45408;-43
2022/10/29 00:23:47;;;;;;;;;20.00;17.00;;;;;19.68;71.12;101614.06;5059484;28;45246;-43
2022/10/29 00:26:13;;;;;;;;;18.25;16.25;;;;;19.66;71.05;101616.09;5059552;28;45547;-41
2022/10/29 00:28:39;;;;;;;;;18.00;16.00;;;;;19.66;71.21;101616.09;5059107;28;45357;-44
2022/10/29 00:31:13;;;;;;;;;22.50;16.75;;;;;19.63;70.63;101616.47;5059039;28;45362;-41
2022/10/29 00:33:39;;;;;;;;;16.75;15.00;;;;;19.54;71.31;101596.78;5059275;28;45359;-43
2022/10/29 00:36:10;;;;;;;;;19.25;15.75;;;;;19.63;70.87;101616.47;5059171;28;45375;-42
2022/10/29 00:38:36;;;;;;;;;17.00;14.00;;;;;19.56;71.29;101612.81;5058810;28;45488;-42
2022/10/29 00:41:03;;;;;;;;;19.00;17.00;;;;;19.59;71.10;101615.13;5059119;28;45240;-40
2022/10/29 00:43:32;;;;;;;;;17.75;16.25;;;;;19.56;71.16;101592.06;5059183;28;45385;-44
2022/10/29 00:46:10;;;;;;;;;12.25;9.25;;;;;19.57;70.94;101595.59;5059306;28;45476;-41
2022/10/29 00:48:41;;;;;;;;;18.50;14.00;;;;;19.54;71.16;101607.56;5059031;28;45246;-42
2022/10/29 00:51:09;;;;;;;;;19.25;15.75;;;;;19.49;70.82;101604.59;5058914;28;45356;-40
2022/10/29 00:53:38;;;;;;;;;16.75;14.25;;;;;19.41;71.22;101580.41;5059232;28;45331;-44
2022/10/29 00:56:04;;;;;;;;;16.25;15.50;;;;;19.41;71.28;101569.59;5059356;28;45547;-43
2022/10/29 00:58:30;;;;;;;;;18.00;15.50;;;;;19.52;70.79;101588.06;5058997;28;46322;-44
2022/10/29 01:00:55;;;;;;;;;16.25;14.75;;;;;19.52;71.00;101593.44;5058869;28;45544;-44
2022/10/29 01:03:21;;;;;;;;;17.75;13.75;;;;;19.50;71.00;101570.34;5058926;28;45392;-42
2022/10/29 01:05:48;;;;;;;;;17.75;14.50;;;;;19.53;70.58;101567.28;5058198;28;45211;-43
2022/10/29 01:08:15;;;;;;;;;15.75;13.25;;;;;19.51;70.69;101569.31;5058780;28;45219;-43
2022/10/29 01:11:28;;;;;;;;;17.50;14.50;;;;;19.51;70.48;101559.41;5058619;28;45263;-43
2022/10/29 01:14:15;;;;;;;;;18.75;11.50;;;;;19.48;70.72;101546.25;4996491;28;45311;-43
2022/10/29 01:16:41;;;;;;;;;18.25;15.75;;;;;19.50;70.61;101555.00;4980111;28;45268;-43
2022/10/29 01:19:27;;;;;;;;;11.25;11.25;;;;;19.51;70.64;101547.72;4996385;28;46003;-42
2022/10/29 01:22:11;;;;;;;;;18.25;14.25;;;;;19.49;70.41;101547.94;4996304;28;45696;-41
2022/10/29 01:25:05;;;;;;;;;19.75;13.50;;;;;19.41;70.30;101542.63;4996443;28;45516;-42
2022/10/29 01:27:48;;;;;;;;;11.25;10.50;;;;;19.41;70.27;101546.16;4996645;28;45352;-42
2022/10/29 01:30:35;;;;;;;;;13.75;11.00;;;;;19.36;70.29;101550.44;4996046;28;46409;-42
2022/10/29 01:33:12;;;;;;;;;18.75;16.00;;;;;19.24;70.52;101546.53;4995885;28;45311;-42
2022/10/29 01:36:03;;;;;;;;;14.25;14.25;;;;;19.32;70.49;101549.97;4996218;28;45562;-42
2022/10/29 01:38:34;;;;;;;;;13.50;11.50;;;;;19.37;70.19;101546.72;4996533;28;45448;-42
2022/10/29 01:41:24;;;;;;;;;18.25;14.25;;;;;19.37;70.29;101535.91;4996036;28;46076;-41
2022/10/29 01:44:09;;;;;;;;;19.25;14.50;;;;;19.34;70.02;101531.75;4918380;28;45278;-42
2022/10/29 01:46:51;;;;;;;;;15.50;13.75;;;;;19.33;70.24;101542.72;4918553;28;45388;-42
2022/10/29 01:49:22;;;;;;;;;15.50;14.00;;;;;19.27;70.23;101532.66;4958329;28;45475;-42
2022/10/29 01:51:48;;;;;;;;;19.75;13.00;;;;;19.23;70.54;101523.28;4995723;28;46301;-43
2022/10/29 01:54:14;;;;;;;;;19.50;11.25;;;;;19.20;70.56;101510.97;4995686;28;45376;-43
2022/10/29 01:56:39;;;;;;;;;16.75;14.75;;;;;19.24;70.36;101500.66;4996074;28;45345;-42
2022/10/29 01:59:09;;;;;;;;;16.00;12.50;;;;;19.18;70.38;101507.63;4996150;28;45354;-42
2022/10/29 02:01:59;;;;;;;;;18.75;12.50;;;;;19.14;70.33;101501.78;4995600;28;46528;-42
2022/10/29 02:04:53;;;;;;;;;18.75;11.25;;;;;19.12;70.06;101501.09;4995617;28;45476;-42
2022/10/29 02:07:21;;;;;;;;;14.50;13.25;;;;;19.07;70.29;101484.66;4995695;28;45331;-42
2022/10/29 02:10:08;;;;;;;;;17.75;14.00;;;;;19.08;70.43;101472.84;4995887;28;45491;-44
2022/10/29 02:12:50;;;;;;;;;15.25;12.25;;;;;19.10;70.03;101456.50;4995690;28;45313;-44
2022/10/29 02:15:25;;;;;;;;;16.50;13.00;;;;;19.11;70.08;101455.44;4995421;28;45474;-43
2022/10/29 02:17:50;;;;;;;;;14.50;11.50;;;;;19.11;70.22;101455.44;4994612;28;45422;-44
2022/10/29 02:20:16;;;;;;;;;13.75;11.75;;;;;19.09;70.05;101442.16;5011061;28;45484;-44
2022/10/29 02:22:42;;;;;;;;;18.50;14.00;;;;;19.05;69.96;101446.25;5057575;28;46093;-45
2022/10/29 02:25:09;;;;;;;;;17.75;13.50;;;;;19.03;69.95;101456.38;5056748;28;45420;-42
2022/10/29 02:27:35;;;;;;;;;16.00;10.25;;;;;19.00;70.00;101451.34;5057495;28;45239;-43
2022/10/29 02:30:00;;;;;;;;;16.75;12.25;;;;;18.90;70.09;101443.53;5057567;28;45252;-42
2022/10/29 02:32:26;;;;;;;;;16.75;13.75;;;;;18.98;69.56;101449.88;5055761;28;45637;-43
2022/10/29 02:34:51;;;;;;;;;11.00;11.00;;;;;18.96;69.54;101444.66;5057459;28;45325;-42
2022/10/29 02:37:16;;;;;;;;;11.25;10.25;;;;;18.98;69.42;101431.00;5057187;28;45576;-43
2022/10/29 02:39:42;;;;;;;;;14.25;12.75;;;;;19.05;69.22;101437.34;5057542;28;45235;-43
2022/10/29 02:42:07;;;;;;;;;11.00;10.00;;;;;19.00;69.24;101437.84;5056995;28;45572;-42
2022/10/29 02:44:33;;;;;;;;;16.50;11.75;;;;;19.00;69.20;101437.84;5056782;28;45394;-41
2022/10/29 02:46:58;;;;;;;;;12.25;11.50;;;;;19.00;69.18;101431.63;5057246;28;45382;-42
2022/10/29 02:49:23;;;;;;;;;13.00;8.75;;;;;19.00;69.26;101432.47;5057336;28;45337;-44
2022/10/29 02:51:49;;;;;;;;;14.00;10.00;;;;;18.96;69.28;101420.38;5056856;28;47251;-42
2022/10/29 02:54:15;;;;;;;;;15.75;13.00;;;;;18.98;69.31;101433.69;5056790;28;45389;-43
2022/10/29 02:56:40;;;;;;;;;15.00;11.50;;;;;18.94;69.25;101431.34;5057067;28;45371;-43
2022/10/29 02:59:05;;;;;;;;;15.00;12.50;;;;;19.00;69.20;101437.03;5057262;28;45468;-42
2022/10/29 03:01:31;;;;;;;;;14.25;13.00;;;;;18.99;69.33;101414.63;5056830;28;45532;-43
2022/10/29 03:03:57;;;;;;;;;17.75;12.25;;;;;19.01;69.59;101426.06;5057002;28;45354;-42
2022/10/29 03:06:22;;;;;;;;;21.33;20.00;;;;;18.98;69.86;101415.66;5056813;28;45477;-43
2022/10/29 03:08:48;;;;;;;;;20.25;17.75;;;;;18.94;69.77;101422.44;5056839;28;45450;-43
2022/10/29 03:11:14;;;;;;;;;22.00;18.50;;;;;18.93;69.90;101421.59;5056675;28;46412;-43
2022/10/29 03:13:39;;;;;;;;;18.00;12.00;;;;;18.94;69.81;101423.28;5056583;28;45312;-43
2022/10/29 03:16:05;;;;;;;;;17.75;13.25;;;;;18.89;70.01;101414.91;5055672;28;45336;-43
2022/10/29 03:18:30;;;;;;;;;24.50;16.50;;;;;18.88;70.04;101412.41;5057146;28;45284;-42
2022/10/29 03:20:56;;;;;;;;;18.00;12.25;;;;;18.87;69.84;101405.31;5056192;28;45393;-45
2022/10/29 03:23:21;;;;;;;;;16.75;13.25;;;;;18.85;70.12;101407.38;5056557;28;45390;-42
2022/10/29 03:25:54;;;;;;;;;13.50;11.00;;;;;18.79;69.68;101416.19;5056922;28;45320;-43
2022/10/29 03:28:20;;;;;;;;;15.50;11.50;;;;;18.78;69.79;101425.28;5057055;28;45226;-42
2022/10/29 03:30:46;;;;;;;;;15.50;10.50;;;;;18.77;69.68;101404.75;5060006;28;46511;-41
2022/10/29 03:33:12;;;;;;;;;13.75;10.50;;;;;18.81;69.66;101416.84;5060052;28;45228;-45
2022/10/29 03:35:37;;;;;;;;;19.50;13.50;;;;;18.80;69.42;101424.09;5060143;28;45447;-42
2022/10/29 03:38:02;;;;;;;;;18.00;11.75;;;;;18.72;69.43;101415.28;5060320;28;45237;-43
2022/10/29 03:40:28;;;;;;;;;12.75;12.00;;;;;18.76;69.32;101411.19;5059897;28;47194;-42
2022/10/29 03:42:53;;;;;;;;;13.75;11.25;;;;;18.75;69.22;101418.44;5060031;28;45380;-45
2022/10/29 03:45:18;;;;;;;;;11.75;11.25;;;;;18.69;69.14;101419.13;5059731;28;45440;-44
2022/10/29 03:47:44;;;;;;;;;10.50;9.00;;;;;18.70;69.31;101404.66;5060038;28;45512;-44
2022/10/29 03:50:09;;;;;;;;;15.00;9.50;;;;;18.73;69.14;101407.00;5058483;28;45595;-42
2022/10/29 03:52:35;;;;;;;;;12.00;10.00;;;;;18.65;69.22;101417.81;5059621;28;45399;-43
2022/10/29 03:55:01;;;;;;;;;17.25;13.75;;;;;18.62;69.32;101418.16;5059815;28;45450;-44
2022/10/29 03:57:26;;;;;;;;;10.00;10.00;;;;;18.59;69.45;101413.16;5059824;28;45316;-41
2022/10/29 03:59:52;;;;;;;;;10.75;9.50;;;;;18.57;69.43;101399.03;5059626;28;46322;-42
2022/10/29 04:02:17;;;;;;;;;11.00;11.00;;;;;18.60;69.45;101377.13;5059652;28;45395;-45
2022/10/29 04:04:42;;;;;;;;;15.25;11.50;;;;;18.64;69.36;101384.66;5059833;28;45853;-47
2022/10/29 04:07:08;;;;;;;;;17.00;11.00;;;;;18.62;69.16;101392.06;5059905;28;45414;-47
2022/10/29 04:09:33;;;;;;;;;13.75;9.25;;;;;18.57;69.29;101399.84;5059953;28;45403;-46
2022/10/29 04:11:59;;;;;;;;;15.25;12.00;;;;;18.57;69.31;101415.19;5059746;28;45301;-42
2022/10/29 04:14:25;;;;;;;;;16.75;13.25;;;;;18.58;69.21;101417.72;5059482;28;45554;-42
2022/10/29 04:16:50;;;;;;;;;15.25;12.25;;;;;18.64;69.23;101418.84;5059796;28;45445;-43
2022/10/29 04:19:15;;;;;;;;;13.25;9.25;;;;;18.63;69.21;101420.69;5059174;28;46042;-42
2022/10/29 04:21:41;;;;;;;;;20.75;12.00;;;;;18.59;69.15;101422.09;5059320;28;45505;-46
2022/10/29 04:24:06;;;;;;;;;16.50;12.50;;;;;18.61;69.07;101433.50;5059637;28;45365;-49
2022/10/29 04:26:32;;;;;;;;;13.00;11.00;;;;;18.60;69.39;101434.53;5059720;28;45455;-46
2022/10/29 04:28:57;;;;;;;;;12.75;10.00;;;;;18.58;69.33;101423.13;5059318;28;46300;-42
2022/10/29 04:31:22;;;;;;;;;15.25;10.50;;;;;18.58;69.48;101417.72;5059190;28;45235;-48
2022/10/29 04:33:48;;;;;;;;;15.25;11.50;;;;;18.62;69.21;101410.09;5059395;28;45695;-50
2022/10/29 04:36:13;;;;;;;;;12.75;12.50;;;;;18.58;68.97;101396.16;5059634;28;45394;-43
2022/10/29 04:38:39;;;;;;;;;13.67;13.33;;;;;18.53;69.05;101398.56;5059277;28;46135;-42
2022/10/29 04:41:04;;;;;;;;;10.75;9.00;;;;;18.50;69.17;101390.84;5058416;28;45437;-43
2022/10/29 04:43:30;;;;;;;;;14.00;10.75;;;;;18.55;69.27;101399.22;5059479;28;45311;-44
2022/10/29 04:45:57;;;;;;;;;13.25;12.00;;;;;18.59;69.08;101392.44;5059453;28;45276;-44
2022/10/29 04:48:24;;;;;;;;;16.00;10.00;;;;;18.59;68.96;101384.38;5059349;28;46166;-44
2022/10/29 04:50:50;;;;;;;;;12.25;9.25;;;;;18.55;69.32;101395.69;5059517;28;45340;-45
2022/10/29 04:53:16;;;;;;;;;16.25;12.25;;;;;18.53;69.18;101393.16;5059297;28;45276;-42
2022/10/29 04:55:42;;;;;;;;;17.25;10.75;;;;;18.54;69.12;101385.91;5059757;28;45221;-44
2022/10/29 04:58:15;;;;;;;;;11.25;11.25;;;;;18.58;69.04;101387.22;5059054;28;46221;-42
2022/10/29 05:00:41;;;;;;;;;12.50;12.00;;;;;18.62;68.98;101375.88;5059049;28;45438;-43
2022/10/29 05:03:07;;;;;;;;;12.50;11.50;;;;;18.59;68.95;101364.66;5059010;28;45222;-43
2022/10/29 05:05:32;;;;;;;;;14.75;12.75;;;;;18.66;68.30;101369.13;5059177;28;45372;-42
2022/10/29 05:07:59;;;;;;;;;14.50;12.00;;;;;18.72;68.78;101372.16;5058865;28;45300;-46
2022/10/29 05:10:27;;;;;;;;;11.25;9.75;;;;;18.71;68.75;101374.00;5058648;28;45390;-43
2022/10/29 05:13:03;;;;;;;;;15.00;10.50;;;;;18.73;68.71;101374.66;5058703;28;45429;-42
2022/10/29 05:15:29;;;;;;;;;17.00;11.50;;;;;18.61;68.84;101363.44;5058833;28;45355;-43
2022/10/29 05:17:55;;;;;;;;;14.50;11.00;;;;;18.73;68.70;101381.91;5057063;28;47197;-42
2022/10/29 05:20:21;;;;;;;;;22.25;14.75;;;;;18.72;68.44;101374.84;5058683;28;45222;-43
2022/10/29 05:22:46;;;;;;;;;15.00;13.33;;;;;18.76;68.66;101371.59;5058679;28;45233;-43
2022/10/29 05:25:12;;;;;;;;;12.25;11.00;;;;;18.78;68.52;101374.91;5058614;28;45295;-45
2022/10/29 05:27:38;;;;;;;;;14.00;11.25;;;;;18.80;68.45;101372.06;5058316;28;46272;-46
2022/10/29 05:30:04;;;;;;;;;16.67;14.33;;;;;18.80;68.49;101372.06;5058452;28;45389;-43
2022/10/29 05:32:30;;;;;;;;;18.25;12.25;;;;;18.80;68.33;101363.97;5058671;28;45426;-43
2022/10/29 05:34:55;;;;;;;;;15.50;9.75;;;;;18.75;68.32;101352.88;5058450;28;45381;-45
2022/10/29 05:37:24;;;;;;;;;16.50;11.00;;;;;18.76;68.25;101357.28;5057942;28;45981;-43
2022/10/29 05:39:49;;;;;;;;;15.00;10.25;;;;;18.68;68.14;101352.78;5058155;28;45366;-43
2022/10/29 05:42:15;;;;;;;;;20.25;13.25;;;;;18.68;68.39;101344.69;5056918;28;45504;-42
2022/10/29 05:44:40;;;;;;;;;11.00;11.00;;;;;18.65;68.41;101339.66;5058065;28;45663;-43
2022/10/29 05:47:06;;;;;;;;;12.25;10.50;;;;;18.63;68.31;101341.72;5058134;28;47041;-42
2022/10/29 05:49:31;;;;;;;;;12.25;11.75;;;;;18.57;68.51;101335.19;5057920;28;45263;-48
2022/10/29 05:51:56;;;;;;;;;15.00;10.50;;;;;18.56;68.35;101338.91;5057540;28;45294;-47
2022/10/29 05:54:22;;;;;;;;;12.00;8.25;;;;;18.57;68.41;101340.59;5058280;28;45178;-46
2022/10/29 05:56:47;;;;;;;;;16.00;13.25;;;;;18.52;68.69;101336.78;5058053;28;45966;-49
2022/10/29 05:59:13;;;;;;;;;16.00;11.50;;;;;18.51;68.48;101335.13;5057680;28;45342;-48
2022/10/29 06:01:38;;;;;;;;;12.50;12.50;;;;;18.46;68.60;101330.28;5057944;28;45327;-48
2022/10/29 06:04:03;;;;;;;;;12.00;12.00;;;;;18.48;68.59;101335.47;5058157;28;45460;-47
2022/10/29 06:06:29;;;;;;;;;14.75;10.00;;;;;18.42;68.54;101327.09;5057505;28;45517;-49
2022/10/29 06:08:55;;;;;;;;;13.00;13.00;;;;;18.44;68.63;101329.59;5057775;28;45469;-49
2022/10/29 06:11:20;;;;;;;;;15.50;12.50;;;;;18.47;68.40;101331.94;5057903;28;45374;-44
2022/10/29 06:13:46;;;;;;;;;14.50;14.00;;;;;18.46;68.08;101330.28;5058025;28;45404;-47
2022/10/29 06:16:11;;;;;;;;;12.75;8.25;;;;;18.47;68.47;101331.13;5057741;28;46113;-50
2022/10/29 06:18:36;;;;;;;;;15.25;11.25;;;;;18.42;68.53;101324.41;5057515;28;45272;-55
2022/10/29 06:21:02;;;;;;;;;16.50;12.00;;;;;18.40;68.46;101307.59;5057639;28;45328;-46
2022/10/29 06:23:28;;;;;;;;;12.75;11.00;;;;;18.41;68.44;101298.50;5057698;28;45535;-48
2022/10/29 06:25:53;;;;;;;;;12.00;12.00;;;;;18.44;68.29;101308.91;5057224;28;45410;-46
2022/10/29 06:28:19;;;;;;;;;16.25;13.00;;;;;18.43;68.08;101318.00;5057365;28;45205;-48
2022/10/29 06:30:49;;;;;;;;;16.75;11.50;;;;;18.41;68.11;101324.59;5057438;28;45169;-47
2022/10/29 06:33:18;;;;;;;;;18.50;9.75;;;;;18.35;68.00;101323.47;5057372;28;45503;-48
2022/10/29 06:35:44;;;;;;;;;13.50;9.50;;;;;18.37;68.05;101347.53;5057278;28;45326;-51
2022/10/29 06:38:09;;;;;;;;;18.25;13.75;;;;;18.36;68.26;101337.78;5057027;28;45298;-48
2022/10/29 06:40:35;;;;;;;;;15.25;11.00;;;;;18.36;68.07;101338.59;5057173;28;45255;-48
2022/10/29 06:43:02;;;;;;;;;16.00;11.50;;;;;18.39;68.27;101345.50;5057317;28;45324;-49
2022/10/29 06:45:29;;;;;;;;;14.50;12.50;;;;;18.43;68.06;101327.94;5056430;28;46256;-45
2022/10/29 06:47:54;;;;;;;;;15.25;10.75;;;;;18.46;68.18;101330.28;5057115;28;45269;-48
2022/10/29 06:50:20;;;;;;;;;15.75;11.00;;;;;18.52;67.88;101355.63;5057110;28;45367;-49
2022/10/29 06:52:55;;;;;;;;;18.67;15.33;;;;;18.53;68.00;101360.84;5057174;28;45278;-47
2022/10/29 06:55:20;;;;;;;;;14.00;11.00;;;;;18.59;67.80;101365.50;5056903;28;45376;-44
2022/10/29 06:57:46;;;;;;;;;12.75;9.75;;;;;18.63;67.91;101358.72;5056822;28;45259;-45
2022/10/29 07:00:11;;;;;;;;;23.00;15.00;;;;;18.65;67.82;101358.53;5057186;28;45328;-50
2022/10/29 07:02:37;;;;;;;;;10.75;9.75;;;;;18.67;67.78;101351.09;5057168;28;45390;-46
2022/10/29 07:05:02;;;;;;;;;17.75;13.50;;;;;18.64;67.91;101352.31;5056319;28;45469;-48
2022/10/29 07:07:28;;;;;;;;;11.75;10.75;;;;;18.56;67.61;101338.91;5056725;28;45421;-44
2022/10/29 07:09:53;;;;;;;;;12.00;12.00;;;;;18.58;67.77;101344.09;5056974;28;45390;-43
2022/10/29 07:12:18;;;;;;;;;9.50;8.00;;;;;18.60;68.09;101347.47;5057186;28;45283;-42
2022/10/29 07:14:44;;;;;;;;;19.00;13.25;;;;;18.63;67.88;101350.63;5056467;28;45913;-48
2022/10/29 07:17:09;;;;;;;;;14.75;11.50;;;;;18.67;67.65;101348.41;5056856;28;45327;-43
2022/10/29 07:19:34;;;;;;;;;13.00;11.25;;;;;18.65;67.76;101334.28;5056654;28;45469;-46
2022/10/29 07:22:00;;;;;;;;;21.75;15.25;;;;;18.62;68.12;101330.06;5056565;28;45366;-50
2022/10/29 07:24:25;;;;;;;;;15.25;12.25;;;;;18.62;67.93;101332.78;5056278;28;46028;-43
2022/10/29 07:26:50;;;;;;;;;15.33;13.33;;;;;18.61;67.94;101339.19;5055890;28;45272;-46
2022/10/29 07:29:16;;;;;;;;;16.00;13.67;;;;;18.57;67.93;101326.28;5056510;28;45208;-48
2022/10/29 07:31:41;;;;;;;;;16.00;13.33;;;;;18.55;67.84;101321.09;5056886;28;45243;-44
2022/10/29 07:34:07;;;;;;;;;17.00;12.67;;;;;18.61;67.81;101336.50;5056169;28;45438;-45
2022/10/29 07:36:32;;;;;;;;;22.00;15.00;;;;;18.54;67.85;101308.66;5055285;28;45272;-47
2022/10/29 07:38:57;;;;;;;;;19.00;16.33;;;;;18.55;67.83;101312.16;5056479;28;45227;-44
2022/10/29 07:41:23;;;;;;;;;15.00;13.50;;;;;18.65;67.71;101327.03;5056677;28;45434;-43
2022/10/29 07:43:48;;;;;;;;;19.50;15.25;;;;;18.72;67.81;101337.09;5056371;28;45306;-47
2022/10/29 07:46:13;;;;;;;;;18.25;14.00;;;;;18.75;67.60;101326.81;5054937;28;45434;-45
2022/10/29 07:48:39;;;;;;;;;18.25;13.25;;;;;18.76;67.30;101323.06;5056567;28;45363;-49
2022/10/29 07:51:04;;;;;;;;;16.25;12.25;;;;;18.79;67.38;101319.16;5056562;28;45629;-43
2022/10/29 07:53:30;;;;;;;;;16.00;14.00;;;;;18.84;67.20;101319.44;5056132;28;46045;-44
2022/10/29 07:55:56;;;;;;;;;15.25;13.50;;;;;18.77;67.05;101303.19;5056385;28;45354;-45
2022/10/29 07:58:22;;;;;;;;;18.33;14.00;;;;;18.90;66.73;101318.69;5056257;28;45409;-44
2022/10/29 08:00:48;;;;;;;;;18.67;17.33;;;;;18.95;66.67;101325.19;5056447;28;45400;-46
2022/10/29 08:03:14;;;;;;;;;18.50;12.00;;;;;18.87;66.75;101317.19;5055929;28;46173;-46
2022/10/29 08:05:40;;;;;;;;;19.00;16.25;;;;;18.94;66.17;101330.78;5055994;28;45371;-42
2022/10/29 08:08:06;;;;;;;;;17.75;15.00;;;;;18.98;66.00;101342.03;5055715;28;45560;-46
2022/10/29 08:10:33;;;;;;;;;16.50;13.50;;;;;19.05;66.07;101346.47;5056318;28;45735;-45
2022/10/29 08:13:00;;;;;;;;;16.25;12.75;;;;;19.15;65.53;101349.72;5056114;28;46281;-46
2022/10/29 08:15:28;;;;;;;;;13.50;12.00;;;;;19.22;65.24;101354.38;5055992;28;45425;-45
2022/10/29 08:17:55;;;;;;;;;17.00;14.00;;;;;19.22;65.18;101352.50;5059384;28;45268;-43
2022/10/29 08:20:22;;;;;;;;;13.00;12.50;;;;;19.27;65.25;101343.84;5059776;28;45260;-45
2022/10/29 08:22:47;;;;;;;;;16.00;14.50;;;;;19.35;65.03;101347.25;5059090;28;47097;-48
2022/10/29 08:25:14;;;;;;;;;13.25;13.25;;;;;19.47;64.51;101349.44;5059431;28;45237;-45
2022/10/29 08:27:39;;;;;;;;;13.25;12.00;;;;;19.49;64.16;101340.16;5059210;28;45383;-44
2022/10/29 08:30:06;;;;;;;;;17.00;9.50;;;;;19.52;64.01;101355.13;5059500;28;45373;-43
2022/10/29 08:32:32;;;;;;;;;18.25;10.25;;;;;19.56;63.38;101354.56;5059166;28;46688;-43
2022/10/29 08:34:57;;;;;;;;;17.50;13.25;;;;;19.58;63.47;101352.50;5058989;28;45381;-43
2022/10/29 08:37:22;;;;;;;;;22.75;15.00;;;;;19.58;63.62;101341.69;5059309;28;45283;-45
2022/10/29 08:39:48;;;;;;;;;20.25;13.75;;;;;19.73;62.97;101357.06;5059410;28;45426;-45
2022/10/29 08:42:39;;;;;;;;;14.50;11.50;;;;;19.75;62.44;101342.31;5058950;28;47054;-41
2022/10/29 08:45:38;;;;;;;;;11.75;10.00;;;;;19.78;63.08;101349.22;5055783;28;45558;-47
2022/10/29 08:48:18;;;;;;;;;7.50;7.50;;;;;19.86;62.40;101349.91;5059032;28;45445;-49
2022/10/29 08:50:49;;;;;;;;;15.00;12.50;;;;;19.92;62.08;101324.00;5059226;28;45489;-44
2022/10/29 08:53:26;;;;;;;;;18.50;11.25;;;;;20.14;61.35;101339.16;5058495;28;47314;-43
2022/10/29 08:55:51;;;;;;;;;18.00;16.00;;;;;20.30;61.47;101326.38;5058679;28;45358;-48
2022/10/29 08:58:39;;;;;;;;;14.75;13.75;;;;;20.50;61.14;101330.09;5058895;28;45311;-42
2022/10/29 09:01:15;;;;;;;;;15.00;13.50;;;;;20.70;60.36;101326.69;5058896;28;45449;-45
2022/10/29 09:03:41;;;;;;;;;14.00;11.75;;;;;20.85;59.60;101330.91;5058596;28;46421;-51
2022/10/29 09:06:16;;;;;;;;;19.75;13.00;;;;;21.08;58.49;101346.03;5058790;28;45377;-47
2022/10/29 09:09:08;;;;;;;;;11.00;11.00;;;;;21.46;57.53;101359.13;5058636;28;45511;-46
2022/10/29 09:11:52;;;;;;;;;13.50;11.00;;;;;21.65;56.79;101353.72;5058903;28;46060;-44
2022/10/29 09:14:20;;;;;;;;;13.75;12.00;;;;;21.67;55.87;101350.84;5058439;28;45431;-50
2022/10/29 09:17:03;;;;;;;;;14.00;11.60;;;;;21.58;56.70;101349.38;5058438;28;45339;-41
2022/10/29 09:20:04;;;;;;;;;12.00;9.40;;;;;21.41;57.39;101343.50;5058478;28;45347;-48
2022/10/29 09:22:46;;;;;;;;;13.75;11.00;;;;;21.17;57.04;101337.53;5058621;28;45372;-44
2022/10/29 09:25:33;;;;;;;;;16.00;10.25;;;;;21.10;57.17;101355.59;5058323;28;46120;-45
2022/10/29 09:28:24;;;;;;;;;15.60;10.80;;;;;20.93;58.23;101344.28;5058046;28;45435;-48
2022/10/29 09:31:02;;;;;;;;;14.25;12.00;;;;;20.86;57.98;101339.91;5058356;28;45436;-47
2022/10/29 09:33:28;;;;;;;;;12.00;9.75;;;;;20.82;57.92;101342.16;5058631;28;45316;-50
2022/10/29 09:35:57;;;;;;;;;7.50;5.00;;;;;20.79;57.65;101344.44;5058121;28;47518;-46
2022/10/29 09:38:33;;;;;;;;;16.60;10.20;;;;;20.80;58.02;101338.81;5058050;28;45477;-49
2022/10/29 09:41:00;;;;;;;;;11.25;11.00;;;;;20.89;58.25;101344.88;5058253;28;45344;-48
2022/10/29 09:43:35;;;;;;;;;10.25;10.00;;;;;20.95;57.94;101341.41;5058472;28;45284;-50
2022/10/29 09:46:20;;;;;;;;;13.25;10.25;;;;;21.11;57.35;101341.06;5057664;28;46295;-50
2022/10/29 09:49:23;;;;;;;;;18.80;13.80;;;;;21.48;56.88;101340.78;5058018;28;45540;-48
2022/10/29 09:51:53;;;;;;;;;11.50;11.25;;;;;21.76;56.07;101341.47;5058139;28;45284;-45
2022/10/29 09:54:18;;;;;;;;;16.75;9.75;;;;;21.90;54.55;101345.03;5058029;28;45304;-47
2022/10/29 09:56:46;;;;;;;;;12.25;9.50;;;;;22.15;54.71;101329.84;5057661;28;46480;-44
2022/10/29 09:59:44;;;;;;;;;15.60;11.40;;;;;22.41;54.23;101326.28;5058181;28;45342;-47
2022/10/29 10:02:40;;;;;;;;;11.75;10.00;;;;;22.34;53.50;101330.91;5057569;28;45279;-47
2022/10/29 10:05:12;;;;;;;;;13.00;11.50;;;;;22.26;53.90;101333.00;5057883;28;45331;-48
2022/10/29 10:07:38;;;;;;;;;12.25;10.00;;;;;22.20;52.79;101337.34;5057661;28;47151;-49
2022/10/29 10:10:31;;;;;;;;;15.80;10.40;;;;;22.21;53.15;101343.63;5057502;28;45305;-46
2022/10/29 10:13:01;;;;;;;;;19.80;10.40;;;;;22.04;52.91;101319.63;5055425;28;45698;-48
2022/10/29 10:15:33;;;;;;;;;11.50;11.00;;;;;22.12;53.28;101324.88;5057622;28;45445;-47
2022/10/29 10:18:01;;;;;;;;;11.50;9.50;;;;;21.97;53.31;101326.91;5057361;28;46297;-45
2022/10/29 10:20:40;;;;;;;;;8.60;6.80;;;;;21.98;53.24;101331.28;5057412;28;45429;-47
2022/10/29 10:23:45;;;;;;;;;17.20;12.80;;;;;22.03;53.67;101327.94;5057584;28;45240;-46
2022/10/29 10:26:44;;;;;;;;;11.50;7.00;;;;;22.06;53.94;101328.38;4995584;28;45437;-50
2022/10/29 10:29:22;;;;;;;;;12.80;9.20;;;;;22.12;53.52;101326.69;4995375;28;45480;-42
2022/10/29 10:31:56;;;;;;;;;13.00;9.20;;;;;22.19;53.63;101322.16;4995744;28;45808;-43
2022/10/29 10:34:35;;;;;;;;;11.80;11.20;;;;;22.36;53.27;101315.25;4995928;28;45470;-45
2022/10/29 10:37:10;;;;;;;;;11.50;10.50;;;;;22.59;52.60;101319.41;4995626;28;45545;-43
2022/10/29 10:39:37;;;;;;;;;11.00;9.20;;;;;22.72;52.30;101313.94;4994560;28;46436;-45
2022/10/29 10:42:05;;;;;;;;;10.80;9.40;;;;;22.83;52.02;101317.84;4995452;28;45395;-42
2022/10/29 10:44:32;;;;;;;;;14.00;11.00;;;;;22.83;52.10;101301.56;4995070;28;45592;-44
2022/10/29 10:47:04;;;;;;;;;9.80;9.00;;;;;22.94;51.83;101309.09;4995651;28;45390;-42
2022/10/29 10:49:36;;;;;;;;;12.80;10.60;;;;;23.04;51.56;101304.03;4995029;28;45636;-43
2022/10/29 10:52:06;;;;;;;;;10.40;9.20;;;;;23.12;51.17;101295.66;4995376;28;45484;-43
2022/10/29 10:54:40;;;;;;;;;11.40;11.40;;;;;23.23;51.35;101288.72;4994951;28;45496;-44
2022/10/29 10:57:11;;;;;;;;;13.20;11.40;;;;;23.28;50.95;101285.34;4995385;28;45387;-42
2022/10/29 10:59:45;;;;;;;;;13.60;9.00;;;;;23.30;51.04;101288.66;4994818;28;47094;-45
2022/10/29 11:02:20;;;;;;;;;9.40;8.20;;;;;23.37;50.93;101275.88;5019229;28;45356;-47
2022/10/29 11:04:53;;;;;;;;;13.80;10.20;;;;;23.37;50.97;101273.19;5056933;28;45386;-42
2022/10/29 11:07:20;;;;;;;;;13.00;9.80;;;;;23.32;50.65;101273.00;5057110;28;45314;-48
2022/10/29 11:09:49;;;;;;;;;13.60;10.80;;;;;23.30;51.07;101267.81;5056477;28;46547;-46
2022/10/29 11:12:28;;;;;;;;;12.00;10.20;;;;;23.38;51.18;101261.25;5056757;28;45268;-44
2022/10/29 11:15:23;;;;;;;;;12.20;11.20;;;;;23.37;51.05;101265.84;5056934;28;45353;-42
2022/10/29 11:17:48;;;;;;;;;13.60;12.40;;;;;23.59;50.31;101269.03;4994789;28;45366;-47
2022/10/29 11:20:27;;;;;;;;;9.75;8.50;;;;;23.64;50.72;101268.41;4994834;28;46972;-45
2022/10/29 11:23:10;;;;;;;;;14.60;11.80;;;;;23.78;49.89;101275.44;4994614;28;45367;-41